sensor_id;sensor_type;location;lat;lon;timestamp;temperature;humidity
24402;DHT22;12539;48.808;11.292;2023-07-16T00:00:05;21.40;88.30
24402;DHT22;12539;48.808;11.292;2023-07-16T00:02:33;21.40;90.10
24402;DHT22;12539;48.808;11.292;2023-07-16T00:04:59;21.30;90.50
24402;DHT22;12539;48.808;11.292;2023-07-16T00:07:24;21.20;91.00
24402;DHT22;12539;48.808;11.292;2023-07-16T00:09:50;21.20;91.20
24402;DHT22;12539;48.808;11.292;2023-07-16T00:12:15;21.10;91.60
24402;DHT22;12539;48.808;11.292;2023-07-16T00:14:41;21.10;92.10
24402;DHT22;12539;48.808;11.292;2023-07-16T00:17:06;21.10;92.80
24402;DHT22;12539;48.808;11.292;2023-07-16T00:19:32;21.10;93.30
24402;DHT22;12539;48.808;11.292;2023-07-16T00:21:57;21.10;94.10
24402;DHT22;12539;48.808;11.292;2023-07-16T00:24:23;21.10;94.20
24402;DHT22;12539;48.808;11.292;2023-07-16T00:26:48;21.10;94.40
24402;DHT22;12539;48.808;11.292;2023-07-16T00:29:14;21.10;94.90
24402;DHT22;12539;48.808;11.292;2023-07-16T00:31:39;21.20;95.10
24402;DHT22;12539;48.808;11.292;2023-07-16T00:34:05;21.20;95.10
24402;DHT22;12539;48.808;11.292;2023-07-16T00:36:30;21.30;95.40
24402;DHT22;12539;48.808;11.292;2023-07-16T00:38:56;21.30;95.50
24402;DHT22;12539;48.808;11.292;2023-07-16T00:41:21;21.30;95.60
24402;DHT22;12539;48.808;11.292;2023-07-16T00:43:47;21.40;95.60
24402;DHT22;12539;48.808;11.292;2023-07-16T00:46:12;21.40;95.60
24402;DHT22;12539;48.808;11.292;2023-07-16T00:48:39;21.50;95.60
24402;DHT22;12539;48.808;11.292;2023-07-16T00:51:05;21.50;95.70
24402;DHT22;12539;48.808;11.292;2023-07-16T00:53:31;21.60;95.70
24402;DHT22;12539;48.808;11.292;2023-07-16T00:55:57;21.70;95.70
24402;DHT22;12539;48.808;11.292;2023-07-16T00:58:22;21.70;95.60
24402;DHT22;12539;48.808;11.292;2023-07-16T01:00:48;21.70;95.60
24402;DHT22;12539;48.808;11.292;2023-07-16T01:03:14;21.80;95.60
24402;DHT22;12539;48.808;11.292;2023-07-16T01:08:06;21.80;95.80
24402;DHT22;12539;48.808;11.292;2023-07-16T01:10:32;21.90;95.90
24402;DHT22;12539;48.808;11.292;2023-07-16T01:12:58;21.90;95.80
24402;DHT22;12539;48.808;11.292;2023-07-16T01:15:25;22.00;95.70
24402;DHT22;12539;48.808;11.292;2023-07-16T01:17:50;21.90;95.90
24402;DHT22;12539;48.808;11.292;2023-07-16T01:20:16;22.00;96.00
24402;DHT22;12539;48.808;11.292;2023-07-16T01:28:02;21.90;96.90
24402;DHT22;12539;48.808;11.292;2023-07-16T01:30:31;21.80;97.30
24402;DHT22;12539;48.808;11.292;2023-07-16T01:32:57;21.70;97.60
24402;DHT22;12539;48.808;11.292;2023-07-16T01:35:22;21.70;98.20
24402;DHT22;12539;48.808;11.292;2023-07-16T01:37:48;21.50;98.20
24402;DHT22;12539;48.808;11.292;2023-07-16T01:40:14;21.40;98.40
24402;DHT22;12539;48.808;11.292;2023-07-16T01:42:40;21.40;98.80
24402;DHT22;12539;48.808;11.292;2023-07-16T01:45:06;21.40;99.10
24402;DHT22;12539;48.808;11.292;2023-07-16T01:50:00;21.30;99.90
24402;DHT22;12539;48.808;11.292;2023-07-16T01:52:25;21.20;99.90
24402;DHT22;12539;48.808;11.292;2023-07-16T01:54:51;21.20;99.90
24402;DHT22;12539;48.808;11.292;2023-07-16T01:57:16;21.10;99.90
24402;DHT22;12539;48.808;11.292;2023-07-16T01:59:42;21.00;99.90
24402;DHT22;12539;48.808;11.292;2023-07-16T02:02:07;20.90;99.90
24402;DHT22;12539;48.808;11.292;2023-07-16T02:04:33;20.90;99.90
24402;DHT22;12539;48.808;11.292;2023-07-16T02:06:58;20.80;99.90
24402;DHT22;12539;48.808;11.292;2023-07-16T02:09:24;20.80;99.90
24402;DHT22;12539;48.808;11.292;2023-07-16T02:11:50;20.70;99.90
24402;DHT22;12539;48.808;11.292;2023-07-16T02:14:16;20.70;99.90
24402;DHT22;12539;48.808;11.292;2023-07-16T02:16:42;20.60;99.90
24402;DHT22;12539;48.808;11.292;2023-07-16T02:19:07;20.50;99.90
24402;DHT22;12539;48.808;11.292;2023-07-16T02:21:33;20.50;99.90
24402;DHT22;12539;48.808;11.292;2023-07-16T02:23:58;20.40;99.90
24402;DHT22;12539;48.808;11.292;2023-07-16T02:26:24;20.40;99.90
24402;DHT22;12539;48.808;11.292;2023-07-16T02:28:49;20.40;99.90
24402;DHT22;12539;48.808;11.292;2023-07-16T02:31:15;20.40;99.90
24402;DHT22;12539;48.808;11.292;2023-07-16T02:33:40;20.40;99.90
24402;DHT22;12539;48.808;11.292;2023-07-16T02:36:06;20.40;99.90
24402;DHT22;12539;48.808;11.292;2023-07-16T02:38:32;20.40;99.90
24402;DHT22;12539;48.808;11.292;2023-07-16T02:40:57;20.40;99.90
24402;DHT22;12539;48.808;11.292;2023-07-16T02:43:23;20.40;99.90
24402;DHT22;12539;48.808;11.292;2023-07-16T02:45:48;20.40;99.90
24402;DHT22;12539;48.808;11.292;2023-07-16T02:48:14;20.40;99.90
24402;DHT22;12539;48.808;11.292;2023-07-16T02:50:39;20.50;99.90
24402;DHT22;12539;48.808;11.292;2023-07-16T02:53:05;20.50;99.90
24402;DHT22;12539;48.808;11.292;2023-07-16T02:55:31;20.50;99.90
24402;DHT22;12539;48.808;11.292;2023-07-16T02:57:57;20.50;99.90
24402;DHT22;12539;48.808;11.292;2023-07-16T03:00:22;20.50;99.90
24402;DHT22;12539;48.808;11.292;2023-07-16T03:02:48;20.50;99.90
24402;DHT22;12539;48.808;11.292;2023-07-16T03:05:15;20.50;99.90
24402;DHT22;12539;48.808;11.292;2023-07-16T03:07:41;20.60;99.90
24402;DHT22;12539;48.808;11.292;2023-07-16T03:10:06;20.60;99.90
24402;DHT22;12539;48.808;11.292;2023-07-16T03:12:32;20.50;99.90
24402;DHT22;12539;48.808;11.292;2023-07-16T03:14:58;20.60;99.90
24402;DHT22;12539;48.808;11.292;2023-07-16T03:17:23;20.60;99.90
24402;DHT22;12539;48.808;11.292;2023-07-16T03:19:49;20.60;99.90
24402;DHT22;12539;48.808;11.292;2023-07-16T03:22:14;20.60;99.90
24402;DHT22;12539;48.808;11.292;2023-07-16T03:24:40;20.60;99.90
24402;DHT22;12539;48.808;11.292;2023-07-16T03:27:06;20.60;99.90
24402;DHT22;12539;48.808;11.292;2023-07-16T03:29:32;20.70;99.90
24402;DHT22;12539;48.808;11.292;2023-07-16T03:31:58;20.70;99.90
24402;DHT22;12539;48.808;11.292;2023-07-16T03:34:23;20.70;99.90
24402;DHT22;12539;48.808;11.292;2023-07-16T03:36:49;20.70;99.90
24402;DHT22;12539;48.808;11.292;2023-07-16T03:39:15;20.70;99.90
24402;DHT22;12539;48.808;11.292;2023-07-16T03:41:40;20.80;99.90
24402;DHT22;12539;48.808;11.292;2023-07-16T03:44:06;20.80;99.90
24402;DHT22;12539;48.808;11.292;2023-07-16T03:46:31;20.80;99.90
24402;DHT22;12539;48.808;11.292;2023-07-16T03:48:57;20.80;99.90
24402;DHT22;12539;48.808;11.292;2023-07-16T03:51:22;20.90;99.90
24402;DHT22;12539;48.808;11.292;2023-07-16T03:53:48;20.90;99.90
24402;DHT22;12539;48.808;11.292;2023-07-16T03:56:13;20.90;99.90
24402;DHT22;12539;48.808;11.292;2023-07-16T03:58:39;20.90;99.90
24402;DHT22;12539;48.808;11.292;2023-07-16T04:01:04;21.00;99.90
24402;DHT22;12539;48.808;11.292;2023-07-16T04:03:30;21.00;99.90
24402;DHT22;12539;48.808;11.292;2023-07-16T04:06:02;21.10;99.90
24402;DHT22;12539;48.808;11.292;2023-07-16T04:08:28;21.10;99.90
24402;DHT22;12539;48.808;11.292;2023-07-16T04:10:53;21.10;99.90
24402;DHT22;12539;48.808;11.292;2023-07-16T04:13:19;21.10;99.90
24402;DHT22;12539;48.808;11.292;2023-07-16T04:15:44;21.10;99.90
24402;DHT22;12539;48.808;11.292;2023-07-16T04:18:10;21.00;99.90
24402;DHT22;12539;48.808;11.292;2023-07-16T04:20:35;21.10;99.90
24402;DHT22;12539;48.808;11.292;2023-07-16T04:23:01;21.10;99.90
24402;DHT22;12539;48.808;11.292;2023-07-16T04:25:26;21.10;99.90
24402;DHT22;12539;48.808;11.292;2023-07-16T04:27:52;21.10;99.90
24402;DHT22;12539;48.808;11.292;2023-07-16T04:30:17;21.10;99.90
24402;DHT22;12539;48.808;11.292;2023-07-16T04:32:43;21.00;99.90
24402;DHT22;12539;48.808;11.292;2023-07-16T04:35:09;21.10;99.90
24402;DHT22;12539;48.808;11.292;2023-07-16T04:37:34;21.10;99.90
24402;DHT22;12539;48.808;11.292;2023-07-16T04:40:00;21.10;99.90
24402;DHT22;12539;48.808;11.292;2023-07-16T04:42:25;21.10;99.90
24402;DHT22;12539;48.808;11.292;2023-07-16T04:44:51;21.10;99.90
24402;DHT22;12539;48.808;11.292;2023-07-16T04:47:16;21.10;99.90
24402;DHT22;12539;48.808;11.292;2023-07-16T04:49:42;21.10;99.90
24402;DHT22;12539;48.808;11.292;2023-07-16T04:52:07;21.10;99.90
24402;DHT22;12539;48.808;11.292;2023-07-16T04:54:36;21.10;99.90
24402;DHT22;12539;48.808;11.292;2023-07-16T04:57:03;21.10;99.90
24402;DHT22;12539;48.808;11.292;2023-07-16T04:59:28;21.10;99.90
24402;DHT22;12539;48.808;11.292;2023-07-16T05:01:54;21.10;99.90
24402;DHT22;12539;48.808;11.292;2023-07-16T05:04:19;21.10;99.90
24402;DHT22;12539;48.808;11.292;2023-07-16T05:06:45;21.10;99.90
24402;DHT22;12539;48.808;11.292;2023-07-16T05:09:10;21.10;99.90
24402;DHT22;12539;48.808;11.292;2023-07-16T05:11:36;21.10;99.90
24402;DHT22;12539;48.808;11.292;2023-07-16T05:14:03;21.10;99.90
24402;DHT22;12539;48.808;11.292;2023-07-16T05:16:28;21.20;99.90
24402;DHT22;12539;48.808;11.292;2023-07-16T05:18:54;21.20;99.90
24402;DHT22;12539;48.808;11.292;2023-07-16T05:21:19;21.30;99.90
24402;DHT22;12539;48.808;11.292;2023-07-16T05:23:45;21.30;99.90
24402;DHT22;12539;48.808;11.292;2023-07-16T05:26:10;21.30;99.90
24402;DHT22;12539;48.808;11.292;2023-07-16T05:28:36;21.40;99.90
24402;DHT22;12539;48.808;11.292;2023-07-16T05:31:02;21.40;99.90
24402;DHT22;12539;48.808;11.292;2023-07-16T05:33:28;21.50;99.90
24402;DHT22;12539;48.808;11.292;2023-07-16T05:35:53;21.50;99.90
24402;DHT22;12539;48.808;11.292;2023-07-16T05:38:19;21.50;99.90
24402;DHT22;12539;48.808;11.292;2023-07-16T05:40:44;21.60;99.90
24402;DHT22;12539;48.808;11.292;2023-07-16T05:43:10;21.70;99.90
24402;DHT22;12539;48.808;11.292;2023-07-16T05:45:36;21.80;99.90
24402;DHT22;12539;48.808;11.292;2023-07-16T05:48:02;21.80;99.90
24402;DHT22;12539;48.808;11.292;2023-07-16T05:50:29;21.90;99.90
24402;DHT22;12539;48.808;11.292;2023-07-16T05:52:54;22.00;99.90
24402;DHT22;12539;48.808;11.292;2023-07-16T05:55:20;22.10;99.90
24402;DHT22;12539;48.808;11.292;2023-07-16T05:57:45;22.20;99.90
24402;DHT22;12539;48.808;11.292;2023-07-16T06:00:12;22.20;99.90
24402;DHT22;12539;48.808;11.292;2023-07-16T06:02:38;22.20;99.90
24402;DHT22;12539;48.808;11.292;2023-07-16T06:05:04;22.20;99.90
24402;DHT22;12539;48.808;11.292;2023-07-16T06:07:30;22.20;99.90
24402;DHT22;12539;48.808;11.292;2023-07-16T06:09:56;22.30;99.90
24402;DHT22;12539;48.808;11.292;2023-07-16T06:12:22;22.30;99.90
24402;DHT22;12539;48.808;11.292;2023-07-16T06:14:47;22.30;99.90
24402;DHT22;12539;48.808;11.292;2023-07-16T06:17:13;22.30;99.90
24402;DHT22;12539;48.808;11.292;2023-07-16T06:19:38;22.30;99.90
24402;DHT22;12539;48.808;11.292;2023-07-16T06:22:04;22.30;99.90
24402;DHT22;12539;48.808;11.292;2023-07-16T06:24:29;22.40;99.90
24402;DHT22;12539;48.808;11.292;2023-07-16T06:26:55;22.40;99.90
24402;DHT22;12539;48.808;11.292;2023-07-16T06:29:21;22.30;99.90
24402;DHT22;12539;48.808;11.292;2023-07-16T06:31:56;22.30;99.90
24402;DHT22;12539;48.808;11.292;2023-07-16T06:34:22;22.20;99.90
24402;DHT22;12539;48.808;11.292;2023-07-16T06:36:47;22.20;99.90
24402;DHT22;12539;48.808;11.292;2023-07-16T06:39:13;22.20;99.90
24402;DHT22;12539;48.808;11.292;2023-07-16T06:41:38;22.20;99.90
24402;DHT22;12539;48.808;11.292;2023-07-16T06:44:04;22.20;99.90
24402;DHT22;12539;48.808;11.292;2023-07-16T06:46:29;22.30;99.90
24402;DHT22;12539;48.808;11.292;2023-07-16T06:48:55;22.30;99.90
24402;DHT22;12539;48.808;11.292;2023-07-16T06:51:20;22.40;99.90
24402;DHT22;12539;48.808;11.292;2023-07-16T06:53:46;22.60;99.90
24402;DHT22;12539;48.808;11.292;2023-07-16T06:56:12;22.80;99.90
24402;DHT22;12539;48.808;11.292;2023-07-16T06:58:38;22.90;99.90
24402;DHT22;12539;48.808;11.292;2023-07-16T07:01:03;23.00;99.90
24402;DHT22;12539;48.808;11.292;2023-07-16T07:03:29;23.10;99.90
24402;DHT22;12539;48.808;11.292;2023-07-16T07:05:54;23.10;99.90
24402;DHT22;12539;48.808;11.292;2023-07-16T07:08:20;23.00;99.90
24402;DHT22;12539;48.808;11.292;2023-07-16T07:10:49;23.00;99.90
24402;DHT22;12539;48.808;11.292;2023-07-16T07:13:15;22.90;99.90
24402;DHT22;12539;48.808;11.292;2023-07-16T07:15:41;22.90;99.90
24402;DHT22;12539;48.808;11.292;2023-07-16T07:18:07;22.90;99.90
24402;DHT22;12539;48.808;11.292;2023-07-16T07:20:32;22.80;99.90
24402;DHT22;12539;48.808;11.292;2023-07-16T07:22:58;22.80;99.90
24402;DHT22;12539;48.808;11.292;2023-07-16T07:25:27;22.80;99.90
24402;DHT22;12539;48.808;11.292;2023-07-16T07:27:53;22.80;99.90
24402;DHT22;12539;48.808;11.292;2023-07-16T07:30:18;22.90;99.90
24402;DHT22;12539;48.808;11.292;2023-07-16T07:32:44;23.00;99.90
24402;DHT22;12539;48.808;11.292;2023-07-16T07:35:10;23.00;99.90
24402;DHT22;12539;48.808;11.292;2023-07-16T07:37:35;23.00;99.90
24402;DHT22;12539;48.808;11.292;2023-07-16T07:40:01;23.00;99.90
24402;DHT22;12539;48.808;11.292;2023-07-16T07:42:28;23.00;99.90
24402;DHT22;12539;48.808;11.292;2023-07-16T07:44:53;22.90;99.90
24402;DHT22;12539;48.808;11.292;2023-07-16T07:47:19;22.90;99.90
24402;DHT22;12539;48.808;11.292;2023-07-16T07:49:44;22.90;99.90
24402;DHT22;12539;48.808;11.292;2023-07-16T07:52:10;22.90;99.90
24402;DHT22;12539;48.808;11.292;2023-07-16T07:54:35;23.00;99.90
24402;DHT22;12539;48.808;11.292;2023-07-16T07:57:01;23.00;99.90
24402;DHT22;12539;48.808;11.292;2023-07-16T07:59:30;22.90;99.90
24402;DHT22;12539;48.808;11.292;2023-07-16T08:01:56;22.90;99.90
24402;DHT22;12539;48.808;11.292;2023-07-16T08:04:22;22.90;99.90
24402;DHT22;12539;48.808;11.292;2023-07-16T08:06:49;23.00;99.90
24402;DHT22;12539;48.808;11.292;2023-07-16T08:09:14;23.00;99.90
24402;DHT22;12539;48.808;11.292;2023-07-16T08:11:40;23.10;99.90
24402;DHT22;12539;48.808;11.292;2023-07-16T08:14:05;23.20;99.90
24402;DHT22;12539;48.808;11.292;2023-07-16T08:16:31;23.20;99.90
24402;DHT22;12539;48.808;11.292;2023-07-16T08:18:59;23.10;99.90
24402;DHT22;12539;48.808;11.292;2023-07-16T08:21:24;23.20;99.90
24402;DHT22;12539;48.808;11.292;2023-07-16T08:23:50;23.20;99.90
24402;DHT22;12539;48.808;11.292;2023-07-16T08:26:16;23.30;99.90
24402;DHT22;12539;48.808;11.292;2023-07-16T08:28:42;23.30;99.90
24402;DHT22;12539;48.808;11.292;2023-07-16T08:31:07;23.30;99.90
24402;DHT22;12539;48.808;11.292;2023-07-16T08:33:33;23.30;99.90
24402;DHT22;12539;48.808;11.292;2023-07-16T08:35:59;23.20;99.90
24402;DHT22;12539;48.808;11.292;2023-07-16T08:38:24;23.20;99.90
24402;DHT22;12539;48.808;11.292;2023-07-16T08:40:50;23.10;99.90
24402;DHT22;12539;48.808;11.292;2023-07-16T08:43:16;23.00;99.90
24402;DHT22;12539;48.808;11.292;2023-07-16T08:45:41;23.00;99.90
24402;DHT22;12539;48.808;11.292;2023-07-16T08:48:10;22.90;99.90
24402;DHT22;12539;48.808;11.292;2023-07-16T08:50:36;22.80;99.90
24402;DHT22;12539;48.808;11.292;2023-07-16T08:53:05;22.80;99.90
24402;DHT22;12539;48.808;11.292;2023-07-16T08:55:31;22.80;99.90
24402;DHT22;12539;48.808;11.292;2023-07-16T08:57:57;22.80;99.90
24402;DHT22;12539;48.808;11.292;2023-07-16T09:00:23;22.80;99.90
24402;DHT22;12539;48.808;11.292;2023-07-16T09:02:51;22.90;99.90
24402;DHT22;12539;48.808;11.292;2023-07-16T09:05:18;23.00;99.90
24402;DHT22;12539;48.808;11.292;2023-07-16T09:07:45;23.10;99.90
24402;DHT22;12539;48.808;11.292;2023-07-16T09:10:11;23.20;99.90
24402;DHT22;12539;48.808;11.292;2023-07-16T09:12:41;23.30;99.90
24402;DHT22;12539;48.808;11.292;2023-07-16T09:15:07;23.40;99.90
24402;DHT22;12539;48.808;11.292;2023-07-16T09:17:32;23.20;99.90
24402;DHT22;12539;48.808;11.292;2023-07-16T09:20:01;23.20;99.90
24402;DHT22;12539;48.808;11.292;2023-07-16T09:22:27;23.20;99.90
24402;DHT22;12539;48.808;11.292;2023-07-16T09:24:53;23.20;99.90
24402;DHT22;12539;48.808;11.292;2023-07-16T09:27:18;23.30;99.90
24402;DHT22;12539;48.808;11.292;2023-07-16T09:29:44;23.40;99.90
24402;DHT22;12539;48.808;11.292;2023-07-16T09:32:09;23.50;99.90
24402;DHT22;12539;48.808;11.292;2023-07-16T09:34:35;23.50;99.90
24402;DHT22;12539;48.808;11.292;2023-07-16T09:37:01;23.50;99.90
24402;DHT22;12539;48.808;11.292;2023-07-16T09:39:27;23.70;99.90
24402;DHT22;12539;48.808;11.292;2023-07-16T09:41:53;23.90;99.90
24402;DHT22;12539;48.808;11.292;2023-07-16T09:44:18;24.10;99.90
24402;DHT22;12539;48.808;11.292;2023-07-16T09:46:45;24.30;99.00
24402;DHT22;12539;48.808;11.292;2023-07-16T09:49:10;24.50;98.80
24402;DHT22;12539;48.808;11.292;2023-07-16T09:51:37;24.70;98.20
24402;DHT22;12539;48.808;11.292;2023-07-16T09:54:03;24.80;97.70
24402;DHT22;12539;48.808;11.292;2023-07-16T09:56:50;25.10;97.60
24402;DHT22;12539;48.808;11.292;2023-07-16T09:59:15;25.30;95.90
24402;DHT22;12539;48.808;11.292;2023-07-16T10:01:41;25.40;94.50
24402;DHT22;12539;48.808;11.292;2023-07-16T10:04:17;25.50;93.80
24402;DHT22;12539;48.808;11.292;2023-07-16T10:09:14;25.60;93.50
24402;DHT22;12539;48.808;11.292;2023-07-16T10:12:06;25.70;92.40
24402;DHT22;12539;48.808;11.292;2023-07-16T10:14:38;25.70;92.00
24402;DHT22;12539;48.808;11.292;2023-07-16T10:17:04;25.80;92.30
24402;DHT22;12539;48.808;11.292;2023-07-16T10:19:30;26.00;92.00
24402;DHT22;12539;48.808;11.292;2023-07-16T10:21:56;26.10;91.50
24402;DHT22;12539;48.808;11.292;2023-07-16T10:24:21;26.30;91.20
24402;DHT22;12539;48.808;11.292;2023-07-16T10:26:52;26.60;90.70
24402;DHT22;12539;48.808;11.292;2023-07-16T10:29:17;26.70;89.10
24402;DHT22;12539;48.808;11.292;2023-07-16T10:31:43;26.70;89.10
24402;DHT22;12539;48.808;11.292;2023-07-16T10:34:10;26.70;87.30
24402;DHT22;12539;48.808;11.292;2023-07-16T10:36:37;26.60;87.30
24402;DHT22;12539;48.808;11.292;2023-07-16T10:39:03;26.60;86.30
24402;DHT22;12539;48.808;11.292;2023-07-16T10:41:30;26.60;86.20
24402;DHT22;12539;48.808;11.292;2023-07-16T10:43:56;26.50;85.70
24402;DHT22;12539;48.808;11.292;2023-07-16T10:46:24;26.60;85.80
24402;DHT22;12539;48.808;11.292;2023-07-16T10:48:49;26.60;86.80
24402;DHT22;12539;48.808;11.292;2023-07-16T10:51:15;26.70;84.30
24402;DHT22;12539;48.808;11.292;2023-07-16T10:53:42;26.70;84.10
24402;DHT22;12539;48.808;11.292;2023-07-16T10:56:07;26.60;84.00
24402;DHT22;12539;48.808;11.292;2023-07-16T10:58:33;26.70;84.80
24402;DHT22;12539;48.808;11.292;2023-07-16T11:00:58;26.90;84.60
24402;DHT22;12539;48.808;11.292;2023-07-16T11:03:24;26.90;83.30
24402;DHT22;12539;48.808;11.292;2023-07-16T11:05:50;26.90;83.40
24402;DHT22;12539;48.808;11.292;2023-07-16T11:08:22;26.90;83.70
24402;DHT22;12539;48.808;11.292;2023-07-16T11:10:53;26.90;83.20
24402;DHT22;12539;48.808;11.292;2023-07-16T11:13:18;26.90;83.00
24402;DHT22;12539;48.808;11.292;2023-07-16T11:15:47;26.90;82.60
24402;DHT22;12539;48.808;11.292;2023-07-16T11:18:13;27.00;82.10
24402;DHT22;12539;48.808;11.292;2023-07-16T11:20:40;27.00;79.30
24402;DHT22;12539;48.808;11.292;2023-07-16T11:23:05;27.00;78.60
24402;DHT22;12539;48.808;11.292;2023-07-16T11:25:31;27.10;79.50
24402;DHT22;12539;48.808;11.292;2023-07-16T11:27:57;27.20;77.90
24402;DHT22;12539;48.808;11.292;2023-07-16T11:30:23;27.40;78.10
24402;DHT22;12539;48.808;11.292;2023-07-16T11:32:49;27.50;77.10
24402;DHT22;12539;48.808;11.292;2023-07-16T11:35:15;27.40;75.60
24402;DHT22;12539;48.808;11.292;2023-07-16T11:37:41;27.30;74.90
24402;DHT22;12539;48.808;11.292;2023-07-16T11:40:07;27.10;74.90
24402;DHT22;12539;48.808;11.292;2023-07-16T11:42:34;27.00;75.40
24402;DHT22;12539;48.808;11.292;2023-07-16T11:45:00;26.80;76.10
24402;DHT22;12539;48.808;11.292;2023-07-16T11:47:26;26.60;75.70
24402;DHT22;12539;48.808;11.292;2023-07-16T11:49:52;26.40;76.40
24402;DHT22;12539;48.808;11.292;2023-07-16T11:52:27;26.20;76.90
24402;DHT22;12539;48.808;11.292;2023-07-16T11:54:54;26.10;77.70
24402;DHT22;12539;48.808;11.292;2023-07-16T11:57:19;26.00;76.90
24402;DHT22;12539;48.808;11.292;2023-07-16T11:59:45;26.00;78.10
24402;DHT22;12539;48.808;11.292;2023-07-16T12:02:11;26.10;77.20
24402;DHT22;12539;48.808;11.292;2023-07-16T12:04:36;26.10;76.80
24402;DHT22;12539;48.808;11.292;2023-07-16T12:07:02;26.10;77.60
24402;DHT22;12539;48.808;11.292;2023-07-16T12:09:28;26.10;76.40
24402;DHT22;12539;48.808;11.292;2023-07-16T12:11:53;26.20;76.50
24402;DHT22;12539;48.808;11.292;2023-07-16T12:14:19;26.40;74.60
24402;DHT22;12539;48.808;11.292;2023-07-16T12:16:44;26.40;74.70
24402;DHT22;12539;48.808;11.292;2023-07-16T12:19:10;26.40;74.70
24402;DHT22;12539;48.808;11.292;2023-07-16T12:21:35;26.50;74.70
24402;DHT22;12539;48.808;11.292;2023-07-16T12:24:01;26.60;74.60
24402;DHT22;12539;48.808;11.292;2023-07-16T12:26:27;26.80;75.10
24402;DHT22;12539;48.808;11.292;2023-07-16T12:28:53;27.00;72.50
24402;DHT22;12539;48.808;11.292;2023-07-16T12:31:18;27.00;71.80
24402;DHT22;12539;48.808;11.292;2023-07-16T12:33:45;27.00;71.30
24402;DHT22;12539;48.808;11.292;2023-07-16T12:36:11;27.00;71.30
24402;DHT22;12539;48.808;11.292;2023-07-16T12:38:37;27.00;71.00
24402;DHT22;12539;48.808;11.292;2023-07-16T12:41:03;26.90;70.80
24402;DHT22;12539;48.808;11.292;2023-07-16T12:43:28;26.70;71.30
24402;DHT22;12539;48.808;11.292;2023-07-16T12:45:54;26.70;72.60
24402;DHT22;12539;48.808;11.292;2023-07-16T12:48:19;26.60;71.60
24402;DHT22;12539;48.808;11.292;2023-07-16T12:50:48;26.60;72.60
24402;DHT22;12539;48.808;11.292;2023-07-16T12:53:13;26.70;73.20
24402;DHT22;12539;48.808;11.292;2023-07-16T12:55:39;26.90;71.60
24402;DHT22;12539;48.808;11.292;2023-07-16T12:58:05;26.90;70.40
24402;DHT22;12539;48.808;11.292;2023-07-16T13:00:30;26.90;70.50
24402;DHT22;12539;48.808;11.292;2023-07-16T13:02:56;26.90;69.70
24402;DHT22;12539;48.808;11.292;2023-07-16T13:05:21;26.90;70.00
24402;DHT22;12539;48.808;11.292;2023-07-16T13:07:48;26.90;70.70
24402;DHT22;12539;48.808;11.292;2023-07-16T13:10:13;27.00;71.60
24402;DHT22;12539;48.808;11.292;2023-07-16T13:12:39;27.10;70.40
24402;DHT22;12539;48.808;11.292;2023-07-16T13:15:04;27.10;70.00
24402;DHT22;12539;48.808;11.292;2023-07-16T13:17:30;26.90;70.30
24402;DHT22;12539;48.808;11.292;2023-07-16T13:19:56;26.80;70.50
24402;DHT22;12539;48.808;11.292;2023-07-16T13:22:21;26.70;69.40
24402;DHT22;12539;48.808;11.292;2023-07-16T13:24:47;26.60;69.80
24402;DHT22;12539;48.808;11.292;2023-07-16T13:27:22;26.60;70.40
24402;DHT22;12539;48.808;11.292;2023-07-16T13:29:49;26.60;71.70
24402;DHT22;12539;48.808;11.292;2023-07-16T13:32:15;26.60;72.10
24402;DHT22;12539;48.808;11.292;2023-07-16T13:34:41;26.50;70.30
24402;DHT22;12539;48.808;11.292;2023-07-16T13:37:06;26.40;71.10
24402;DHT22;12539;48.808;11.292;2023-07-16T13:39:32;26.30;70.30
24402;DHT22;12539;48.808;11.292;2023-07-16T13:41:57;26.30;70.90
24402;DHT22;12539;48.808;11.292;2023-07-16T13:44:23;26.30;70.10
24402;DHT22;12539;48.808;11.292;2023-07-16T13:46:48;26.30;69.50
24402;DHT22;12539;48.808;11.292;2023-07-16T13:49:14;26.30;69.60
24402;DHT22;12539;48.808;11.292;2023-07-16T13:51:39;26.30;69.10
24402;DHT22;12539;48.808;11.292;2023-07-16T13:54:05;26.30;66.30
24402;DHT22;12539;48.808;11.292;2023-07-16T13:56:31;26.10;67.90
24402;DHT22;12539;48.808;11.292;2023-07-16T13:58:56;26.20;68.30
24402;DHT22;12539;48.808;11.292;2023-07-16T14:01:24;26.30;68.30
24402;DHT22;12539;48.808;11.292;2023-07-16T14:03:50;26.40;68.40
24402;DHT22;12539;48.808;11.292;2023-07-16T14:06:15;26.40;68.50
24402;DHT22;12539;48.808;11.292;2023-07-16T14:08:41;26.40;68.10
24402;DHT22;12539;48.808;11.292;2023-07-16T14:11:06;26.30;68.50
24402;DHT22;12539;48.808;11.292;2023-07-16T14:13:32;26.40;68.80
24402;DHT22;12539;48.808;11.292;2023-07-16T14:15:57;26.50;68.90
24402;DHT22;12539;48.808;11.292;2023-07-16T14:18:23;26.50;68.00
24402;DHT22;12539;48.808;11.292;2023-07-16T14:20:49;26.40;67.20
24402;DHT22;12539;48.808;11.292;2023-07-16T14:23:14;26.30;68.20
24402;DHT22;12539;48.808;11.292;2023-07-16T14:25:40;26.40;68.30
24402;DHT22;12539;48.808;11.292;2023-07-16T14:28:06;26.40;67.80
24402;DHT22;12539;48.808;11.292;2023-07-16T14:30:31;26.60;67.90
24402;DHT22;12539;48.808;11.292;2023-07-16T14:32:57;26.60;67.70
24402;DHT22;12539;48.808;11.292;2023-07-16T14:38:08;26.60;67.00
24402;DHT22;12539;48.808;11.292;2023-07-16T14:40:34;26.50;67.90
24402;DHT22;12539;48.808;11.292;2023-07-16T14:42:59;26.40;68.50
24402;DHT22;12539;48.808;11.292;2023-07-16T14:45:25;26.40;69.00
24402;DHT22;12539;48.808;11.292;2023-07-16T14:47:50;26.40;68.00
24402;DHT22;12539;48.808;11.292;2023-07-16T14:50:16;26.50;68.00
24402;DHT22;12539;48.808;11.292;2023-07-16T14:52:41;26.60;67.80
24402;DHT22;12539;48.808;11.292;2023-07-16T14:55:07;26.60;67.20
24402;DHT22;12539;48.808;11.292;2023-07-16T14:57:33;26.50;67.10
24402;DHT22;12539;48.808;11.292;2023-07-16T14:59:59;26.50;67.40
24402;DHT22;12539;48.808;11.292;2023-07-16T15:02:25;26.50;67.10
24402;DHT22;12539;48.808;11.292;2023-07-16T15:04:50;26.60;67.20
24402;DHT22;12539;48.808;11.292;2023-07-16T15:07:16;26.50;66.90
24402;DHT22;12539;48.808;11.292;2023-07-16T15:09:41;26.50;67.20
24402;DHT22;12539;48.808;11.292;2023-07-16T15:12:07;26.40;67.50
24402;DHT22;12539;48.808;11.292;2023-07-16T15:14:35;26.30;67.80
24402;DHT22;12539;48.808;11.292;2023-07-16T15:17:03;26.30;67.50
24402;DHT22;12539;48.808;11.292;2023-07-16T15:19:29;26.30;67.50
24402;DHT22;12539;48.808;11.292;2023-07-16T15:24:41;26.30;67.00